sensor_id;sensor_type;location;lat;lon;timestamp;temperature;humidity
65826;DHT22;52586;-43.152;172.732;2022-12-07T00:02:23;21.10;47.30
65826;DHT22;52586;-43.152;172.732;2022-12-07T00:04:53;21.10;47.30
65826;DHT22;52586;-43.152;172.732;2022-12-07T00:07:24;21.10;47.30
65826;DHT22;52586;-43.152;172.732;2022-12-07T00:09:57;21.10;47.20
65826;DHT22;52586;-43.152;172.732;2022-12-07T00:12:27;21.10;47.10
65826;DHT22;52586;-43.152;172.732;2022-12-07T00:14:58;21.10;47.10
65826;DHT22;52586;-43.152;172.732;2022-12-07T00:17:29;21.10;47.10
65826;DHT22;52586;-43.152;172.732;2022-12-07T00:20:01;21.20;47.00
65826;DHT22;52586;-43.152;172.732;2022-12-07T00:22:32;21.10;46.90
65826;DHT22;52586;-43.152;172.732;2022-12-07T00:25:05;21.20;47.00
65826;DHT22;52586;-43.152;172.732;2022-12-07T00:27:36;21.20;46.90
65826;DHT22;52586;-43.152;172.732;2022-12-07T00:30:08;21.20;46.90
65826;DHT22;52586;-43.152;172.732;2022-12-07T00:32:39;21.20;46.80
65826;DHT22;52586;-43.152;172.732;2022-12-07T00:35:10;21.20;46.70
65826;DHT22;52586;-43.152;172.732;2022-12-07T00:37:41;21.20;46.70
65826;DHT22;52586;-43.152;172.732;2022-12-07T00:40:14;21.20;46.60
65826;DHT22;52586;-43.152;172.732;2022-12-07T00:42:47;21.20;46.60
65826;DHT22;52586;-43.152;172.732;2022-12-07T00:45:19;21.20;47.20
65826;DHT22;52586;-43.152;172.732;2022-12-07T00:47:49;21.20;46.60
65826;DHT22;52586;-43.152;172.732;2022-12-07T00:50:20;21.20;46.60
65826;DHT22;52586;-43.152;172.732;2022-12-07T00:52:51;21.20;46.60
65826;DHT22;52586;-43.152;172.732;2022-12-07T00:55:23;21.20;46.70
65826;DHT22;52586;-43.152;172.732;2022-12-07T00:57:54;21.20;46.70
65826;DHT22;52586;-43.152;172.732;2022-12-07T01:00:25;21.30;46.70
65826;DHT22;52586;-43.152;172.732;2022-12-07T01:02:55;21.30;46.60
65826;DHT22;52586;-43.152;172.732;2022-12-07T01:05:26;21.30;46.60
65826;DHT22;52586;-43.152;172.732;2022-12-07T01:07:57;21.30;46.50
65826;DHT22;52586;-43.152;172.732;2022-12-07T01:10:30;21.30;46.40
65826;DHT22;52586;-43.152;172.732;2022-12-07T01:13:00;21.30;46.30
65826;DHT22;52586;-43.152;172.732;2022-12-07T01:15:31;21.30;46.40
65826;DHT22;52586;-43.152;172.732;2022-12-07T01:18:02;21.30;46.40
65826;DHT22;52586;-43.152;172.732;2022-12-07T01:20:33;21.30;46.30
65826;DHT22;52586;-43.152;172.732;2022-12-07T01:23:03;21.30;46.30
65826;DHT22;52586;-43.152;172.732;2022-12-07T01:25:36;21.30;46.20
65826;DHT22;52586;-43.152;172.732;2022-12-07T01:28:07;21.30;46.10
65826;DHT22;52586;-43.152;172.732;2022-12-07T01:30:37;21.30;46.10
65826;DHT22;52586;-43.152;172.732;2022-12-07T01:33:08;21.30;46.00
65826;DHT22;52586;-43.152;172.732;2022-12-07T01:35:39;21.30;46.00
65826;DHT22;52586;-43.152;172.732;2022-12-07T01:38:09;21.40;46.10
65826;DHT22;52586;-43.152;172.732;2022-12-07T01:40:42;21.30;46.00
65826;DHT22;52586;-43.152;172.732;2022-12-07T01:43:17;21.40;46.10
65826;DHT22;52586;-43.152;172.732;2022-12-07T01:45:48;21.40;46.00
65826;DHT22;52586;-43.152;172.732;2022-12-07T01:48:24;21.40;46.10
65826;DHT22;52586;-43.152;172.732;2022-12-07T01:50:57;21.40;46.00
65826;DHT22;52586;-43.152;172.732;2022-12-07T01:53:31;21.40;45.90
65826;DHT22;52586;-43.152;172.732;2022-12-07T01:56:08;21.40;45.90
65826;DHT22;52586;-43.152;172.732;2022-12-07T01:58:41;21.40;45.80
65826;DHT22;52586;-43.152;172.732;2022-12-07T02:01:12;21.40;45.90
65826;DHT22;52586;-43.152;172.732;2022-12-07T02:03:45;21.40;45.80
65826;DHT22;52586;-43.152;172.732;2022-12-07T02:06:18;21.40;45.80
65826;DHT22;52586;-43.152;172.732;2022-12-07T02:08:51;21.40;45.80
65826;DHT22;52586;-43.152;172.732;2022-12-07T02:11:24;21.40;45.80
65826;DHT22;52586;-43.152;172.732;2022-12-07T02:13:55;21.40;45.80
65826;DHT22;52586;-43.152;172.732;2022-12-07T02:16:31;21.50;45.70
65826;DHT22;52586;-43.152;172.732;2022-12-07T02:22:26;21.50;45.50
65826;DHT22;52586;-43.152;172.732;2022-12-07T02:25:08;21.40;45.40
65826;DHT22;52586;-43.152;172.732;2022-12-07T02:27:49;21.50;45.40
65826;DHT22;52586;-43.152;172.732;2022-12-07T02:30:26;21.40;45.30
65826;DHT22;52586;-43.152;172.732;2022-12-07T02:33:00;21.50;45.30
65826;DHT22;52586;-43.152;172.732;2022-12-07T02:35:35;21.50;45.80
65826;DHT22;52586;-43.152;172.732;2022-12-07T02:38:14;21.40;45.20
65826;DHT22;52586;-43.152;172.732;2022-12-07T02:40:50;21.50;45.20
65826;DHT22;52586;-43.152;172.732;2022-12-07T02:43:25;21.50;45.20
65826;DHT22;52586;-43.152;172.732;2022-12-07T02:46:01;21.50;45.20
65826;DHT22;52586;-43.152;172.732;2022-12-07T02:48:34;21.50;45.20
65826;DHT22;52586;-43.152;172.732;2022-12-07T02:51:06;21.50;45.00
65826;DHT22;52586;-43.152;172.732;2022-12-07T02:53:38;21.50;45.00
65826;DHT22;52586;-43.152;172.732;2022-12-07T02:56:17;21.50;45.00
65826;DHT22;52586;-43.152;172.732;2022-12-07T02:58:58;21.50;44.90
65826;DHT22;52586;-43.152;172.732;2022-12-07T03:01:42;21.60;45.00
65826;DHT22;52586;-43.152;172.732;2022-12-07T03:04:36;21.60;45.00
65826;DHT22;52586;-43.152;172.732;2022-12-07T03:07:14;21.60;44.90
65826;DHT22;52586;-43.152;172.732;2022-12-07T03:09:52;21.60;45.00
65826;DHT22;52586;-43.152;172.732;2022-12-07T03:12:33;21.60;45.20
65826;DHT22;52586;-43.152;172.732;2022-12-07T03:15:09;21.60;45.20
65826;DHT22;52586;-43.152;172.732;2022-12-07T03:17:44;21.60;45.20
65826;DHT22;52586;-43.152;172.732;2022-12-07T03:20:19;21.70;45.10
65826;DHT22;52586;-43.152;172.732;2022-12-07T03:22:51;21.70;45.00
65826;DHT22;52586;-43.152;172.732;2022-12-07T03:25:23;21.70;44.90
65826;DHT22;52586;-43.152;172.732;2022-12-07T03:27:56;21.70;44.90
65826;DHT22;52586;-43.152;172.732;2022-12-07T03:30:30;21.70;44.90
65826;DHT22;52586;-43.152;172.732;2022-12-07T03:33:08;21.70;44.80
65826;DHT22;52586;-43.152;172.732;2022-12-07T03:35:42;21.70;44.90
65826;DHT22;52586;-43.152;172.732;2022-12-07T03:38:17;21.70;44.80
65826;DHT22;52586;-43.152;172.732;2022-12-07T03:40:54;21.70;44.70
65826;DHT22;52586;-43.152;172.732;2022-12-07T03:43:29;21.70;44.70
65826;DHT22;52586;-43.152;172.732;2022-12-07T03:46:05;21.70;44.70
65826;DHT22;52586;-43.152;172.732;2022-12-07T03:48:44;21.70;44.70
65826;DHT22;52586;-43.152;172.732;2022-12-07T03:51:22;21.70;44.60
65826;DHT22;52586;-43.152;172.732;2022-12-07T03:53:59;21.70;44.60
65826;DHT22;52586;-43.152;172.732;2022-12-07T03:56:33;21.70;44.60
65826;DHT22;52586;-43.152;172.732;2022-12-07T03:59:04;21.70;44.60
65826;DHT22;52586;-43.152;172.732;2022-12-07T04:01:35;21.70;44.60
65826;DHT22;52586;-43.152;172.732;2022-12-07T04:04:08;21.70;44.60
65826;DHT22;52586;-43.152;172.732;2022-12-07T04:06:38;21.70;44.80
65826;DHT22;52586;-43.152;172.732;2022-12-07T04:09:09;21.70;44.90
65826;DHT22;52586;-43.152;172.732;2022-12-07T04:11:42;21.80;45.00
65826;DHT22;52586;-43.152;172.732;2022-12-07T04:14:13;21.80;45.00
65826;DHT22;52586;-43.152;172.732;2022-12-07T04:16:49;21.80;45.10
65826;DHT22;52586;-43.152;172.732;2022-12-07T04:19:25;21.80;45.10
65826;DHT22;52586;-43.152;172.732;2022-12-07T04:21:56;21.80;45.00
65826;DHT22;52586;-43.152;172.732;2022-12-07T04:24:28;21.80;44.90
65826;DHT22;52586;-43.152;172.732;2022-12-07T04:26:58;21.80;45.00
65826;DHT22;52586;-43.152;172.732;2022-12-07T04:29:29;21.90;45.10
65826;DHT22;52586;-43.152;172.732;2022-12-07T04:32:00;21.80;45.00
65826;DHT22;52586;-43.152;172.732;2022-12-07T04:34:32;21.80;44.90
65826;DHT22;52586;-43.152;172.732;2022-12-07T04:37:03;21.80;44.90
65826;DHT22;52586;-43.152;172.732;2022-12-07T04:39:34;21.80;44.90
65826;DHT22;52586;-43.152;172.732;2022-12-07T04:42:06;21.80;44.80
65826;DHT22;52586;-43.152;172.732;2022-12-07T04:44:37;21.80;44.90
65826;DHT22;52586;-43.152;172.732;2022-12-07T04:47:08;21.80;44.80
65826;DHT22;52586;-43.152;172.732;2022-12-07T04:49:40;21.80;44.80
65826;DHT22;52586;-43.152;172.732;2022-12-07T04:52:11;21.80;44.80
65826;DHT22;52586;-43.152;172.732;2022-12-07T04:54:44;21.80;44.80
65826;DHT22;52586;-43.152;172.732;2022-12-07T04:57:15;21.80;44.90
65826;DHT22;52586;-43.152;172.732;2022-12-07T04:59:46;21.80;44.90
65826;DHT22;52586;-43.152;172.732;2022-12-07T05:02:16;21.80;45.00
65826;DHT22;52586;-43.152;172.732;2022-12-07T05:04:49;21.80;45.00
65826;DHT22;52586;-43.152;172.732;2022-12-07T05:07:20;21.90;45.10
65826;DHT22;52586;-43.152;172.732;2022-12-07T05:09:51;21.80;45.00
65826;DHT22;52586;-43.152;172.732;2022-12-07T05:12:22;21.80;45.00
65826;DHT22;52586;-43.152;172.732;2022-12-07T05:14:52;21.80;45.00
65826;DHT22;52586;-43.152;172.732;2022-12-07T05:17:23;21.90;45.10
65826;DHT22;52586;-43.152;172.732;2022-12-07T05:19:56;21.90;45.10
65826;DHT22;52586;-43.152;172.732;2022-12-07T05:22:26;21.90;45.10
65826;DHT22;52586;-43.152;172.732;2022-12-07T05:24:57;21.90;45.00
65826;DHT22;52586;-43.152;172.732;2022-12-07T05:27:28;21.90;45.00
65826;DHT22;52586;-43.152;172.732;2022-12-07T05:29:58;21.90;45.10
65826;DHT22;52586;-43.152;172.732;2022-12-07T05:32:29;21.90;45.10
65826;DHT22;52586;-43.152;172.732;2022-12-07T05:35:02;21.90;45.10
65826;DHT22;52586;-43.152;172.732;2022-12-07T05:37:32;21.80;45.20
65826;DHT22;52586;-43.152;172.732;2022-12-07T05:40:04;21.80;45.10
65826;DHT22;52586;-43.152;172.732;2022-12-07T05:42:35;21.90;45.30
65826;DHT22;52586;-43.152;172.732;2022-12-07T05:45:07;21.90;45.30
65826;DHT22;52586;-43.152;172.732;2022-12-07T05:47:38;21.90;45.20
65826;DHT22;52586;-43.152;172.732;2022-12-07T05:50:11;21.90;45.10
65826;DHT22;52586;-43.152;172.732;2022-12-07T05:52:42;21.90;45.10
65826;DHT22;52586;-43.152;172.732;2022-12-07T05:55:12;21.90;45.10
65826;DHT22;52586;-43.152;172.732;2022-12-07T05:57:43;21.90;45.10
65826;DHT22;52586;-43.152;172.732;2022-12-07T06:00:34;21.90;45.20
65826;DHT22;52586;-43.152;172.732;2022-12-07T06:03:04;21.80;45.80
65826;DHT22;52586;-43.152;172.732;2022-12-07T06:05:37;21.90;45.30
65826;DHT22;52586;-43.152;172.732;2022-12-07T06:08:07;21.80;45.20
65826;DHT22;52586;-43.152;172.732;2022-12-07T06:10:38;21.80;45.20
65826;DHT22;52586;-43.152;172.732;2022-12-07T06:13:09;21.90;45.30
65826;DHT22;52586;-43.152;172.732;2022-12-07T06:15:38;21.90;45.30
65826;DHT22;52586;-43.152;172.732;2022-12-07T06:18:09;21.80;45.30
65826;DHT22;52586;-43.152;172.732;2022-12-07T06:20:42;21.80;45.30
65826;DHT22;52586;-43.152;172.732;2022-12-07T06:23:12;21.80;45.20
65826;DHT22;52586;-43.152;172.732;2022-12-07T06:25:47;21.80;45.20
65826;DHT22;52586;-43.152;172.732;2022-12-07T06:28:17;21.80;45.20
65826;DHT22;52586;-43.152;172.732;2022-12-07T06:30:48;21.80;45.20
65826;DHT22;52586;-43.152;172.732;2022-12-07T06:33:27;21.80;45.20
65826;DHT22;52586;-43.152;172.732;2022-12-07T06:36:03;21.80;45.20
65826;DHT22;52586;-43.152;172.732;2022-12-07T06:38:34;21.80;45.20
65826;DHT22;52586;-43.152;172.732;2022-12-07T06:41:05;21.80;45.30
65826;DHT22;52586;-43.152;172.732;2022-12-07T06:43:35;21.80;45.30
65826;DHT22;52586;-43.152;172.732;2022-12-07T06:46:06;21.80;45.30
65826;DHT22;52586;-43.152;172.732;2022-12-07T06:48:37;21.80;45.30
65826;DHT22;52586;-43.152;172.732;2022-12-07T06:51:09;21.80;45.40
65826;DHT22;52586;-43.152;172.732;2022-12-07T06:53:40;21.80;45.40
65826;DHT22;52586;-43.152;172.732;2022-12-07T06:56:11;21.70;45.40
65826;DHT22;52586;-43.152;172.732;2022-12-07T06:58:42;21.70;45.40
65826;DHT22;52586;-43.152;172.732;2022-12-07T07:01:13;21.80;45.40
65826;DHT22;52586;-43.152;172.732;2022-12-07T07:03:45;21.70;45.40
65826;DHT22;52586;-43.152;172.732;2022-12-07T07:06:18;21.70;45.40
65826;DHT22;52586;-43.152;172.732;2022-12-07T07:08:48;21.70;45.50
65826;DHT22;52586;-43.152;172.732;2022-12-07T07:11:19;21.70;45.50
65826;DHT22;52586;-43.152;172.732;2022-12-07T07:13:50;21.70;45.50
65826;DHT22;52586;-43.152;172.732;2022-12-07T07:16:21;21.70;45.50
65826;DHT22;52586;-43.152;172.732;2022-12-07T07:18:52;21.60;45.50
65826;DHT22;52586;-43.152;172.732;2022-12-07T07:21:24;21.60;45.50
65826;DHT22;52586;-43.152;172.732;2022-12-07T07:23:55;21.60;45.50
65826;DHT22;52586;-43.152;172.732;2022-12-07T07:26:26;21.60;45.60
65826;DHT22;52586;-43.152;172.732;2022-12-07T07:28:56;21.60;45.60
65826;DHT22;52586;-43.152;172.732;2022-12-07T07:31:27;21.60;45.60
65826;DHT22;52586;-43.152;172.732;2022-12-07T07:33:58;21.60;45.60
65826;DHT22;52586;-43.152;172.732;2022-12-07T07:36:30;21.60;45.60
65826;DHT22;52586;-43.152;172.732;2022-12-07T07:39:02;21.60;45.70
65826;DHT22;52586;-43.152;172.732;2022-12-07T07:41:33;21.60;45.70
65826;DHT22;52586;-43.152;172.732;2022-12-07T07:44:04;21.60;45.70
65826;DHT22;52586;-43.152;172.732;2022-12-07T07:46:35;21.50;45.70
65826;DHT22;52586;-43.152;172.732;2022-12-07T07:49:05;21.50;45.70
65826;DHT22;52586;-43.152;172.732;2022-12-07T07:51:38;21.50;45.80
65826;DHT22;52586;-43.152;172.732;2022-12-07T07:54:09;21.50;45.80
65826;DHT22;52586;-43.152;172.732;2022-12-07T07:56:40;21.50;45.80
65826;DHT22;52586;-43.152;172.732;2022-12-07T07:59:11;21.50;45.80
65826;DHT22;52586;-43.152;172.732;2022-12-07T08:01:42;21.50;45.80
65826;DHT22;52586;-43.152;172.732;2022-12-07T08:04:13;21.50;45.80
65826;DHT22;52586;-43.152;172.732;2022-12-07T08:06:45;21.50;45.90
65826;DHT22;52586;-43.152;172.732;2022-12-07T08:09:16;21.50;45.90
65826;DHT22;52586;-43.152;172.732;2022-12-07T08:11:47;21.40;45.80
65826;DHT22;52586;-43.152;172.732;2022-12-07T08:14:17;21.40;45.90
65826;DHT22;52586;-43.152;172.732;2022-12-07T08:16:48;21.40;45.90
65826;DHT22;52586;-43.152;172.732;2022-12-07T08:19:20;21.40;45.90
65826;DHT22;52586;-43.152;172.732;2022-12-07T08:21:52;21.40;45.90
65826;DHT22;52586;-43.152;172.732;2022-12-07T08:24:23;21.40;45.90
65826;DHT22;52586;-43.152;172.732;2022-12-07T08:26:54;21.30;45.80
65826;DHT22;52586;-43.152;172.732;2022-12-07T08:29:25;21.40;46.00
65826;DHT22;52586;-43.152;172.732;2022-12-07T08:31:56;21.40;46.00
65826;DHT22;52586;-43.152;172.732;2022-12-07T08:34:28;21.40;46.10
65826;DHT22;52586;-43.152;172.732;2022-12-07T08:37:01;21.30;46.00
65826;DHT22;52586;-43.152;172.732;2022-12-07T08:39:31;21.30;46.00
65826;DHT22;52586;-43.152;172.732;2022-12-07T08:42:02;21.30;46.10
65826;DHT22;52586;-43.152;172.732;2022-12-07T08:44:33;21.30;46.10
65826;DHT22;52586;-43.152;172.732;2022-12-07T08:47:05;21.30;46.10
65826;DHT22;52586;-43.152;172.732;2022-12-07T08:49:40;21.30;46.10
65826;DHT22;52586;-43.152;172.732;2022-12-07T08:52:14;21.30;46.20
65826;DHT22;52586;-43.152;172.732;2022-12-07T08:54:48;21.20;46.10
65826;DHT22;52586;-43.152;172.732;2022-12-07T08:57:19;21.20;46.10
65826;DHT22;52586;-43.152;172.732;2022-12-07T08:59:50;21.20;46.10
65826;DHT22;52586;-43.152;172.732;2022-12-07T09:02:20;21.20;46.10
65826;DHT22;52586;-43.152;172.732;2022-12-07T09:04:51;21.20;46.10
65826;DHT22;52586;-43.152;172.732;2022-12-07T09:07:24;21.20;46.20
65826;DHT22;52586;-43.152;172.732;2022-12-07T09:09:55;21.20;46.20
65826;DHT22;52586;-43.152;172.732;2022-12-07T09:12:26;21.20;46.20
65826;DHT22;52586;-43.152;172.732;2022-12-07T09:14:57;21.20;46.10
65826;DHT22;52586;-43.152;172.732;2022-12-07T09:17:31;21.10;46.10
65826;DHT22;52586;-43.152;172.732;2022-12-07T09:20:02;21.10;46.10
65826;DHT22;52586;-43.152;172.732;2022-12-07T09:22:34;21.10;46.10
65826;DHT22;52586;-43.152;172.732;2022-12-07T09:25:05;21.10;46.20
65826;DHT22;52586;-43.152;172.732;2022-12-07T09:27:36;21.10;46.20
65826;DHT22;52586;-43.152;172.732;2022-12-07T09:30:08;21.00;46.20
65826;DHT22;52586;-43.152;172.732;2022-12-07T09:32:38;21.00;46.80
65826;DHT22;52586;-43.152;172.732;2022-12-07T09:35:09;21.10;46.20
65826;DHT22;52586;-43.152;172.732;2022-12-07T09:37:42;21.00;46.20
65826;DHT22;52586;-43.152;172.732;2022-12-07T09:40:13;21.00;46.30
65826;DHT22;52586;-43.152;172.732;2022-12-07T09:42:47;21.00;46.30
65826;DHT22;52586;-43.152;172.732;2022-12-07T09:45:19;21.00;46.30
65826;DHT22;52586;-43.152;172.732;2022-12-07T09:47:51;21.00;46.30
65826;DHT22;52586;-43.152;172.732;2022-12-07T09:50:26;20.90;46.30
65826;DHT22;52586;-43.152;172.732;2022-12-07T09:53:07;21.00;46.30
65826;DHT22;52586;-43.152;172.732;2022-12-07T09:55:39;21.00;46.30
65826;DHT22;52586;-43.152;172.732;2022-12-07T09:58:16;21.00;46.30
65826;DHT22;52586;-43.152;172.732;2022-12-07T10:00:50;20.90;46.30
65826;DHT22;52586;-43.152;172.732;2022-12-07T10:03:23;20.90;46.30
65826;DHT22;52586;-43.152;172.732;2022-12-07T10:05:54;20.90;46.30
65826;DHT22;52586;-43.152;172.732;2022-12-07T10:08:28;20.90;46.40
65826;DHT22;52586;-43.152;172.732;2022-12-07T10:10:59;20.90;46.40
65826;DHT22;52586;-43.152;172.732;2022-12-07T10:13:36;20.90;46.40
65826;DHT22;52586;-43.152;172.732;2022-12-07T10:16:09;20.90;46.40
65826;DHT22;52586;-43.152;172.732;2022-12-07T10:18:57;20.90;46.40
65826;DHT22;52586;-43.152;172.732;2022-12-07T10:22:05;20.90;46.40
65826;DHT22;52586;-43.152;172.732;2022-12-07T10:24:38;20.80;46.40
65826;DHT22;52586;-43.152;172.732;2022-12-07T10:27:19;20.80;46.40
65826;DHT22;52586;-43.152;172.732;2022-12-07T10:29:52;20.80;46.40
65826;DHT22;52586;-43.152;172.732;2022-12-07T10:32:33;20.80;46.40
65826;DHT22;52586;-43.152;172.732;2022-12-07T10:35:24;20.80;47.00
65826;DHT22;52586;-43.152;172.732;2022-12-07T10:37:56;20.70;46.40
65826;DHT22;52586;-43.152;172.732;2022-12-07T10:40:33;20.70;46.40
65826;DHT22;52586;-43.152;172.732;2022-12-07T10:43:18;20.70;46.50
65826;DHT22;52586;-43.152;172.732;2022-12-07T10:46:18;20.70;46.50
65826;DHT22;52586;-43.152;172.732;2022-12-07T10:48:58;20.70;46.50
65826;DHT22;52586;-43.152;172.732;2022-12-07T10:51:38;20.70;46.50
65826;DHT22;52586;-43.152;172.732;2022-12-07T10:54:15;20.70;46.50
65826;DHT22;52586;-43.152;172.732;2022-12-07T10:57:04;20.70;46.50
65826;DHT22;52586;-43.152;172.732;2022-12-07T10:59:47;20.70;46.60
65826;DHT22;52586;-43.152;172.732;2022-12-07T11:02:49;20.60;46.40
65826;DHT22;52586;-43.152;172.732;2022-12-07T11:05:27;20.60;46.50
65826;DHT22;52586;-43.152;172.732;2022-12-07T11:08:05;20.60;46.50
65826;DHT22;52586;-43.152;172.732;2022-12-07T11:10:43;20.60;46.50
65826;DHT22;52586;-43.152;172.732;2022-12-07T11:13:28;20.60;46.60
65826;DHT22;52586;-43.152;172.732;2022-12-07T11:16:08;20.60;46.60
65826;DHT22;52586;-43.152;172.732;2022-12-07T11:18:54;20.60;46.60
65826;DHT22;52586;-43.152;172.732;2022-12-07T11:21:35;20.60;46.60
65826;DHT22;52586;-43.152;172.732;2022-12-07T11:24:12;20.50;46.60
65826;DHT22;52586;-43.152;172.732;2022-12-07T11:26:56;20.50;46.60
65826;DHT22;52586;-43.152;172.732;2022-12-07T11:29:49;20.50;46.70
65826;DHT22;52586;-43.152;172.732;2022-12-07T11:32:34;20.50;46.60
65826;DHT22;52586;-43.152;172.732;2022-12-07T11:35:15;20.50;46.60
65826;DHT22;52586;-43.152;172.732;2022-12-07T11:37:51;20.50;46.60
65826;DHT22;52586;-43.152;172.732;2022-12-07T11:40:28;20.50;46.60
65826;DHT22;52586;-43.152;172.732;2022-12-07T11:43:06;20.50;46.60
65826;DHT22;52586;-43.152;172.732;2022-12-07T11:45:44;20.40;46.60
65826;DHT22;52586;-43.152;172.732;2022-12-07T11:48:20;20.40;46.60
65826;DHT22;52586;-43.152;172.732;2022-12-07T11:50:56;20.40;46.60
65826;DHT22;52586;-43.152;172.732;2022-12-07T11:53:30;20.40;46.60
65826;DHT22;52586;-43.152;172.732;2022-12-07T11:56:08;20.40;46.70
65826;DHT22;52586;-43.152;172.732;2022-12-07T11:58:48;20.40;46.70
65826;DHT22;52586;-43.152;172.732;2022-12-07T12:01:38;20.40;46.70
65826;DHT22;52586;-43.152;172.732;2022-12-07T12:04:30;20.30;46.70
65826;DHT22;52586;-43.152;172.732;2022-12-07T12:07:02;20.30;46.70
65826;DHT22;52586;-43.152;172.732;2022-12-07T12:09:35;20.30;46.70
65826;DHT22;52586;-43.152;172.732;2022-12-07T12:12:31;20.30;46.70
65826;DHT22;52586;-43.152;172.732;2022-12-07T12:15:20;20.30;46.70
65826;DHT22;52586;-43.152;172.732;2022-12-07T12:20:57;20.30;46.70
65826;DHT22;52586;-43.152;172.732;2022-12-07T12:23:35;20.30;46.80
65826;DHT22;52586;-43.152;172.732;2022-12-07T12:26:08;20.20;46.80
65826;DHT22;52586;-43.152;172.732;2022-12-07T12:28:52;20.20;46.80
65826;DHT22;52586;-43.152;172.732;2022-12-07T12:31:43;20.20;46.80
65826;DHT22;52586;-43.152;172.732;2022-12-07T12:34:39;20.20;46.80
65826;DHT22;52586;-43.152;172.732;2022-12-07T12:37:41;20.20;46.80
65826;DHT22;52586;-43.152;172.732;2022-12-07T12:40:43;20.20;46.80
65826;DHT22;52586;-43.152;172.732;2022-12-07T12:43:42;20.20;46.80
65826;DHT22;52586;-43.152;172.732;2022-12-07T12:46:38;20.20;46.80
65826;DHT22;52586;-43.152;172.732;2022-12-07T12:52:58;20.20;46.90
65826;DHT22;52586;-43.152;172.732;2022-12-07T12:58:39;20.10;46.80
65826;DHT22;52586;-43.152;172.732;2022-12-07T13:07:54;20.10;46.90
65826;DHT22;52586;-43.152;172.732;2022-12-07T13:10:39;20.10;46.90
65826;DHT22;52586;-43.152;172.732;2022-12-07T13:13:33;20.10;46.90
65826;DHT22;52586;-43.152;172.732;2022-12-07T13:16:38;20.00;46.80
65826;DHT22;52586;-43.152;172.732;2022-12-07T13:22:49;20.00;46.90
65826;DHT22;52586;-43.152;172.732;2022-12-07T13:25:29;20.00;46.90
65826;DHT22;52586;-43.152;172.732;2022-12-07T13:28:12;20.00;46.90
65826;DHT22;52586;-43.152;172.732;2022-12-07T13:33:38;20.00;47.00
65826;DHT22;52586;-43.152;172.732;2022-12-07T13:36:18;20.00;46.90
65826;DHT22;52586;-43.152;172.732;2022-12-07T13:38:52;20.00;46.90
65826;DHT22;52586;-43.152;172.732;2022-12-07T13:41:23;19.90;46.90
65826;DHT22;52586;-43.152;172.732;2022-12-07T13:44:07;19.90;46.90
65826;DHT22;52586;-43.152;172.732;2022-12-07T13:46:46;19.90;46.90
65826;DHT22;52586;-43.152;172.732;2022-12-07T13:49:25;19.90;46.80
65826;DHT22;52586;-43.152;172.732;2022-12-07T13:52:14;19.90;46.90
65826;DHT22;52586;-43.152;172.732;2022-12-07T13:54:48;19.90;46.90
65826;DHT22;52586;-43.152;172.732;2022-12-07T13:57:19;19.90;46.90
65826;DHT22;52586;-43.152;172.732;2022-12-07T13:59:55;19.90;46.90
65826;DHT22;52586;-43.152;172.732;2022-12-07T14:02:28;19.90;46.90
65826;DHT22;52586;-43.152;172.732;2022-12-07T14:05:09;19.80;46.90
65826;DHT22;52586;-43.152;172.732;2022-12-07T14:07:53;19.80;46.90
65826;DHT22;52586;-43.152;172.732;2022-12-07T14:10:26;19.80;46.90
65826;DHT22;52586;-43.152;172.732;2022-12-07T14:12:57;19.80;46.90
65826;DHT22;52586;-43.152;172.732;2022-12-07T14:15:31;19.80;46.90
65826;DHT22;52586;-43.152;172.732;2022-12-07T14:18:03;19.80;46.80
65826;DHT22;52586;-43.152;172.732;2022-12-07T14:20:35;19.80;46.90
65826;DHT22;52586;-43.152;172.732;2022-12-07T14:23:20;19.80;46.80
65826;DHT22;52586;-43.152;172.732;2022-12-07T14:25:52;19.80;46.80
65826;DHT22;52586;-43.152;172.732;2022-12-07T14:28:28;19.70;46.80
65826;DHT22;52586;-43.152;172.732;2022-12-07T14:31:01;19.70;46.90
65826;DHT22;52586;-43.152;172.732;2022-12-07T14:33:32;19.70;47.50
65826;DHT22;52586;-43.152;172.732;2022-12-07T14:36:03;19.70;46.90
65826;DHT22;52586;-43.152;172.732;2022-12-07T14:38:34;19.60;46.90
65826;DHT22;52586;-43.152;172.732;2022-12-07T14:41:06;19.70;46.90
65826;DHT22;52586;-43.152;172.732;2022-12-07T14:43:55;19.60;46.90
65826;DHT22;52586;-43.152;172.732;2022-12-07T14:46:28;19.60;46.80
65826;DHT22;52586;-43.152;172.732;2022-12-07T14:48:59;19.60;46.80
65826;DHT22;52586;-43.152;172.732;2022-12-07T14:51:29;19.60;46.80
65826;DHT22;52586;-43.152;172.732;2022-12-07T14:54:00;19.60;46.70
65826;DHT22;52586;-43.152;172.732;2022-12-07T14:56:31;19.60;46.80
65826;DHT22;52586;-43.152;172.732;2022-12-07T14:59:02;19.60;46.80
65826;DHT22;52586;-43.152;172.732;2022-12-07T15:01:35;19.60;46.80
65826;DHT22;52586;-43.152;172.732;2022-12-07T15:04:06;19.60;46.80
65826;DHT22;52586;-43.152;172.732;2022-12-07T15:06:37;19.50;46.80
65826;DHT22;52586;-43.152;172.732;2022-12-07T15:09:08;19.50;46.80
65826;DHT22;52586;-43.152;172.732;2022-12-07T15:11:39;19.50;46.80
65826;DHT22;52586;-43.152;172.732;2022-12-07T15:14:10;19.50;46.90
65826;DHT22;52586;-43.152;172.732;2022-12-07T15:16:43;19.40;46.80
65826;DHT22;52586;-43.152;172.732;2022-12-07T15:19:15;19.40;46.80
65826;DHT22;52586;-43.152;172.732;2022-12-07T15:21:46;19.40;46.80
65826;DHT22;52586;-43.152;172.732;2022-12-07T15:24:17;19.40;46.80
65826;DHT22;52586;-43.152;172.732;2022-12-07T15:26:48;19.40;46.80
65826;DHT22;52586;-43.152;172.732;2022-12-07T15:29:19;19.40;46.80
65826;DHT22;52586;-43.152;172.732;2022-12-07T15:31:52;19.40;46.80
65826;DHT22;52586;-43.152;172.732;2022-12-07T15:34:24;19.40;46.80
65826;DHT22;52586;-43.152;172.732;2022-12-07T15:36:56;19.30;46.70
65826;DHT22;52586;-43.152;172.732;2022-12-07T15:39:26;19.30;46.80
65826;DHT22;52586;-43.152;172.732;2022-12-07T15:41:57;19.30;46.80
65826;DHT22;52586;-43.152;172.732;2022-12-07T15:44:28;19.30;46.80
65826;DHT22;52586;-43.152;172.732;2022-12-07T15:47:16;19.30;46.80
65826;DHT22;52586;-43.152;172.732;2022-12-07T15:49:48;19.30;46.80
65826;DHT22;52586;-43.152;172.732;2022-12-07T15:52:18;19.20;46.70
65826;DHT22;52586;-43.152;172.732;2022-12-07T15:54:49;19.30;46.80
65826;DHT22;52586;-43.152;172.732;2022-12-07T15:57:20;19.20;46.70
65826;DHT22;52586;-43.152;172.732;2022-12-07T15:59:51;19.20;46.70